Time,TemperatureF,DewpointF,PressureIn,WindDirection,WindDirectionDegrees,WindSpeedMPH,WindSpeedGustMPH,Humidity,HourlyPrecipIn,Conditions,Clouds,dailyrainin,SoftwareType,DateUTC
2013-03-21 00:00:00,26.6,21.8,29.80,NE,45,2.1,2.1,81,-99.99,,,-99.99,tws,2013-03-21 04:00:00,
2013-03-21 00:02:00,26.6,21.7,29.80,NE,45,0.0,0.0,81,-99.99,,,-99.99,tws,2013-03-21 04:02:00,
2013-03-21 00:07:00,26.4,21.7,29.80,ESE,112,0.0,0.0,82,-99.99,,,-99.99,tws,2013-03-21 04:07:00,
2013-03-21 00:08:00,26.7,21.9,29.80,SE,135,0.0,0.0,81,-99.99,,,-99.99,tws,2013-03-21 04:08:00,
2013-03-21 00:13:00,26.0,21.6,29.80,SSE,157,0.0,0.0,83,-99.99,,,-99.99,tws,2013-03-21 04:13:00,
2013-03-21 00:19:00,25.7,21.0,29.80,SSE,157,0.0,0.0,82,-99.99,,,-99.99,tws,2013-03-21 04:19:00,
2013-03-21 00:24:00,25.7,21.2,29.80,SSE,157,0.0,0.0,82,-99.99,,,-99.99,tws,2013-03-21 04:24:00,
2013-03-21 00:29:00,25.6,20.9,29.79,SSE,157,0.0,0.0,82,-99.99,,,-99.99,tws,2013-03-21 04:29:00,
2013-03-21 00:34:00,26.6,21.7,29.80,SSE,157,0.0,0.0,81,-99.99,,,-99.99,tws,2013-03-21 04:34:00,
2013-03-21 00:39:00,26.6,21.7,29.80,SSE,157,0.0,0.0,81,-99.99,,,-99.99,tws,2013-03-21 04:39:00,
2013-03-21 00:44:00,25.0,20.9,29.80,West,270,0.0,0.0,84,-99.99,,,-99.99,tws,2013-03-21 04:44:00,
2013-03-21 00:50:00,25.4,20.5,29.79,West,270,0.0,0.0,81,-99.99,,,-99.99,tws,2013-03-21 04:50:00,
2013-03-21 00:55:00,25.0,20.7,29.80,NNW,337,0.0,0.0,83,-99.99,,,-99.99,tws,2013-03-21 04:55:00,
2013-03-21 01:00:00,26.8,22.0,29.80,NNW,337,0.0,0.0,81,-99.99,,,-99.99,tws,2013-03-21 05:00:00,
2013-03-21 01:05:00,24.5,20.3,29.80,SSW,202,1.7,1.7,83,-99.99,,,-99.99,tws,2013-03-21 05:05:00,
2013-03-21 01:10:00,24.9,21.0,29.80,SSE,157,0.0,0.0,84,-99.99,,,-99.99,tws,2013-03-21 05:10:00,
2013-03-21 01:15:00,23.7,20.5,29.80,SE,135,1.2,1.2,87,-99.99,,,-99.99,tws,2013-03-21 05:15:00,
2013-03-21 01:20:00,24.0,21.2,29.80,SE,135,4.7,4.7,88,-99.99,,,-99.99,tws,2013-03-21 05:20:00,
2013-03-21 01:25:00,24.6,21.7,29.80,ESE,112,2.5,2.5,88,-99.99,,,-99.99,tws,2013-03-21 05:25:00,
2013-03-21 01:30:00,23.5,20.5,29.80,East,90,2.1,2.1,88,-99.99,,,-99.99,tws,2013-03-21 05:30:00,
2013-03-21 01:35:00,24.3,20.9,29.79,ESE,112,0.6,0.6,86,-99.99,,,-99.99,tws,2013-03-21 05:35:00,
2013-03-21 01:40:00,24.3,21.0,29.80,SE,135,0.0,0.0,87,-99.99,,,-99.99,tws,2013-03-21 05:40:00,
2013-03-21 01:45:00,24.1,20.9,29.80,SSE,157,0.0,0.0,87,-99.99,,,-99.99,tws,2013-03-21 05:45:00,
2013-03-21 01:50:00,24.1,21.1,29.79,SE,135,0.0,0.0,87,-99.99,,,-99.99,tws,2013-03-21 05:50:00,
2013-03-21 01:55:00,24.4,21.2,29.79,SE,135,0.0,0.0,87,-99.99,,,-99.99,tws,2013-03-21 05:55:00,
2013-03-21 02:00:00,23.4,20.3,29.80,SE,135,0.0,0.0,87,-99.99,,,-99.99,tws,2013-03-21 06:00:00,
2013-03-21 02:05:00,23.4,20.7,29.80,WSW,247,0.0,0.0,89,-99.99,,,-99.99,tws,2013-03-21 06:05:00,
2013-03-21 02:10:00,22.6,20.1,29.80,NE,45,0.0,0.0,90,-99.99,,,-99.99,tws,2013-03-21 06:10:00,
2013-03-21 02:15:00,23.5,21.0,29.80,NNE,22,0.0,0.0,90,-99.99,,,-99.99,tws,2013-03-21 06:15:00,
2013-03-21 02:20:00,22.8,20.2,29.80,NE,45,0.0,0.0,89,-99.99,,,-99.99,tws,2013-03-21 06:20:00,
2013-03-21 02:25:00,24.0,21.2,29.80,East,90,0.0,0.0,88,-99.99,,,-99.99,tws,2013-03-21 06:25:00,
2013-03-21 02:30:00,23.7,20.7,29.79,ESE,112,0.0,0.0,88,-99.99,,,-99.99,tws,2013-03-21 06:30:00,
2013-03-21 02:35:00,22.5,19.6,29.79,SE,135,0.0,0.0,88,-99.99,,,-99.99,tws,2013-03-21 06:35:00,
2013-03-21 02:40:00,22.5,20.3,29.79,SSE,157,0.0,0.0,91,-99.99,,,-99.99,tws,2013-03-21 06:40:00,
2013-03-21 02:45:00,22.6,20.3,29.79,SE,135,2.2,2.2,90,-99.99,,,-99.99,tws,2013-03-21 06:45:00,
2013-03-21 02:50:00,22.2,20.2,29.79,SE,135,0.0,0.0,91,-99.99,,,-99.99,tws,2013-03-21 06:50:00,
2013-03-21 02:55:00,22.9,20.5,29.79,SE,135,0.0,0.0,90,-99.99,,,-99.99,tws,2013-03-21 06:55:00,
2013-03-21 03:00:00,22.8,20.4,29.79,SE,135,0.0,0.0,90,-99.99,,,-99.99,tws,2013-03-21 07:00:00,
2013-03-21 03:05:00,21.8,19.9,29.79,SE,135,0.0,0.0,92,-99.99,,,-99.99,tws,2013-03-21 07:05:00,
2013-03-21 03:10:00,22.6,20.5,29.78,East,90,0.0,0.0,91,-99.99,,,-99.99,tws,2013-03-21 07:10:00,
2013-03-21 03:15:00,22.9,20.7,29.77,ENE,67,3.1,3.1,91,-99.99,,,-99.99,tws,2013-03-21 07:15:00,
2013-03-21 03:20:00,22.8,20.5,29.77,East,90,2.8,2.8,90,-99.99,,,-99.99,tws,2013-03-21 07:20:00,
2013-03-21 03:25:00,22.5,20.3,29.77,ESE,112,0.0,0.0,91,-99.99,,,-99.99,tws,2013-03-21 07:25:00,
2013-03-21 03:30:00,20.9,19.2,29.77,NE,45,0.0,0.0,93,-99.99,,,-99.99,tws,2013-03-21 07:30:00,
2013-03-21 03:35:00,22.2,20.4,29.78,SW,225,0.0,0.0,92,-99.99,,,-99.99,tws,2013-03-21 07:35:00,
2013-03-21 03:40:00,22.0,20.0,29.77,South,180,0.0,0.0,91,-99.99,,,-99.99,tws,2013-03-21 07:40:00,
2013-03-21 03:45:00,20.5,18.9,29.77,SSE,157,0.0,0.0,93,-99.99,,,-99.99,tws,2013-03-21 07:45:00,
2013-03-21 03:50:00,22.3,20.6,29.77,ESE,112,0.0,0.0,92,-99.99,,,-99.99,tws,2013-03-21 07:50:00,
2013-03-21 03:55:00,19.5,17.9,29.77,West,270,0.0,0.0,93,-99.99,,,-99.99,tws,2013-03-21 07:55:00,
2013-03-21 04:00:00,21.7,20.3,29.77,SE,135,0.0,0.0,94,-99.99,,,-99.99,tws,2013-03-21 08:00:00,
2013-03-21 04:05:00,19.8,18.2,29.77,WNW,292,0.0,0.0,93,-99.99,,,-99.99,tws,2013-03-21 08:05:00,
2013-03-21 04:11:00,21.0,19.6,29.77,South,180,0.9,0.9,94,-99.99,,,-99.99,tws,2013-03-21 08:11:00,
2013-03-21 04:17:00,21.0,19.5,29.76,SSE,157,0.0,0.0,93,-99.99,,,-99.99,tws,2013-03-21 08:17:00,
2013-03-21 04:22:00,18.6,17.5,29.76,North,360,3.0,3.0,95,-99.99,,,-99.99,tws,2013-03-21 08:22:00,
2013-03-21 04:27:00,20.1,19.1,29.76,North,0,0.0,0.0,96,-99.99,,,-99.99,tws,2013-03-21 08:27:00,
2013-03-21 04:32:00,19.3,18.4,29.76,NW,315,1.7,1.7,96,-99.99,,,-99.99,tws,2013-03-21 08:32:00,
2013-03-21 04:38:00,19.3,18.4,29.75,WNW,292,0.0,0.0,96,-99.99,,,-99.99,tws,2013-03-21 08:38:00,
2013-03-21 04:43:00,20.1,18.7,29.75,East,90,0.0,0.0,94,-99.99,,,-99.99,tws,2013-03-21 08:43:00,
2013-03-21 04:48:00,20.3,19.2,29.75,ENE,67,0.1,0.1,95,-99.99,,,-99.99,tws,2013-03-21 08:48:00,
2013-03-21 04:53:00,19.3,17.9,29.76,NNE,22,0.0,0.0,94,-99.99,,,-99.99,tws,2013-03-21 08:53:00,
2013-03-21 04:58:00,19.0,17.9,29.76,ESE,112,4.3,4.3,95,-99.99,,,-99.99,tws,2013-03-21 08:58:00,
2013-03-21 05:03:00,20.2,19.2,29.76,ESE,112,3.3,3.3,96,-99.99,,,-99.99,tws,2013-03-21 09:03:00,
2013-03-21 05:08:00,21.2,20.2,29.75,ESE,112,0.0,0.0,95,-99.99,,,-99.99,tws,2013-03-21 09:08:00,
2013-03-21 05:13:00,18.7,17.6,29.75,NW,315,1.8,1.8,95,-99.99,,,-99.99,tws,2013-03-21 09:13:00,
2013-03-21 05:18:00,19.3,18.3,29.75,WNW,292,0.0,0.0,95,-99.99,,,-99.99,tws,2013-03-21 09:18:00,
2013-03-21 05:23:00,20.5,19.5,29.75,WNW,292,0.0,0.0,95,-99.99,,,-99.99,tws,2013-03-21 09:23:00,
2013-03-21 05:28:00,18.2,16.8,29.75,NE,45,6.4,6.4,94,-99.99,,,-99.99,tws,2013-03-21 09:28:00,
2013-03-21 05:33:00,19.0,17.9,29.75,NE,45,4.2,4.2,95,-99.99,,,-99.99,tws,2013-03-21 09:33:00,
2013-03-21 05:38:00,19.9,18.8,29.75,NE,45,0.0,0.0,95,-99.99,,,-99.99,tws,2013-03-21 09:38:00,
2013-03-21 05:43:00,20.3,19.0,29.75,ENE,67,0.0,0.0,94,-99.99,,,-99.99,tws,2013-03-21 09:43:00,
2013-03-21 05:48:00,19.9,18.8,29.76,SSE,157,0.0,0.0,95,-99.99,,,-99.99,tws,2013-03-21 09:48:00,
2013-03-21 05:53:00,19.9,18.4,29.76,SW,225,1.0,1.0,94,-99.99,,,-99.99,tws,2013-03-21 09:53:00,
2013-03-21 05:58:00,18.2,17.0,29.76,NNE,22,8.8,8.8,95,-99.99,,,-99.99,tws,2013-03-21 09:58:00,
2013-03-21 06:03:00,19.1,18.0,29.75,North,0,1.8,1.8,95,-99.99,,,-99.99,tws,2013-03-21 10:03:00,
2013-03-21 06:09:00,19.6,18.6,29.75,NNE,22,0.0,0.0,95,-99.99,,,-99.99,tws,2013-03-21 10:09:00,
2013-03-21 06:14:00,20.0,18.7,29.76,West,270,0.0,0.0,94,-99.99,,,-99.99,tws,2013-03-21 10:14:00,
2013-03-21 06:19:00,20.2,18.8,29.77,West,270,0.0,0.0,94,-99.99,,,-99.99,tws,2013-03-21 10:19:00,
2013-03-21 06:24:00,19.4,17.8,29.76,WSW,247,2.3,2.3,93,-99.99,,,-99.99,tws,2013-03-21 10:24:00,
2013-03-21 06:29:00,19.5,18.1,29.76,WSW,247,0.0,0.0,93,-99.99,,,-99.99,tws,2013-03-21 10:29:00,
2013-03-21 06:34:00,20.4,18.9,29.76,SSE,157,0.0,0.0,93,-99.99,,,-99.99,tws,2013-03-21 10:34:00,
2013-03-21 06:39:00,20.5,19.0,29.76,SE,135,0.0,0.0,93,-99.99,,,-99.99,tws,2013-03-21 10:39:00,
2013-03-21 06:44:00,20.9,18.9,29.76,SE,135,0.0,0.0,91,-99.99,,,-99.99,tws,2013-03-21 10:44:00,
2013-03-21 06:50:00,20.7,19.0,29.75,SE,135,0.0,0.0,93,-99.99,,,-99.99,tws,2013-03-21 10:50:00,
2013-03-21 06:55:00,19.3,17.9,29.76,NE,45,0.4,0.4,94,-99.99,,,-99.99,tws,2013-03-21 10:55:00,
2013-03-21 07:00:00,19.2,18.0,29.76,NE,45,0.0,0.0,94,-99.99,,,-99.99,tws,2013-03-21 11:00:00,
2013-03-21 07:05:00,20.0,18.7,29.75,ENE,67,0.0,0.0,94,-99.99,,,-99.99,tws,2013-03-21 11:05:00,
2013-03-21 07:10:00,19.9,18.6,29.75,ESE,112,0.0,0.0,94,-99.99,,,-99.99,tws,2013-03-21 11:10:00,
2013-03-21 07:15:00,20.5,19.2,29.75,SE,135,0.0,0.0,94,-99.99,,,-99.99,tws,2013-03-21 11:15:00,
2013-03-21 07:20:00,21.3,19.6,29.76,SSE,157,2.0,2.0,93,-99.99,,,-99.99,tws,2013-03-21 11:20:00,
2013-03-21 07:25:00,21.8,19.8,29.76,SSE,157,0.0,0.0,91,-99.99,,,-99.99,tws,2013-03-21 11:25:00,
2013-03-21 07:31:00,21.5,19.5,29.76,SSE,157,0.0,0.0,91,-99.99,,,-99.99,tws,2013-03-21 11:31:00,
2013-03-21 07:37:00,21.6,19.6,29.76,SE,135,0.0,0.0,91,-99.99,,,-99.99,tws,2013-03-21 11:37:00,
2013-03-21 07:43:00,21.2,19.1,29.76,SE,135,0.0,0.0,91,-99.99,,,-99.99,tws,2013-03-21 11:43:00,
2013-03-21 07:48:00,20.9,19.0,29.76,SSW,202,0.4,0.4,92,-99.99,,,-99.99,tws,2013-03-21 11:48:00,
2013-03-21 07:53:00,22.2,20.2,29.76,SE,135,5.6,5.6,91,-99.99,,,-99.99,tws,2013-03-21 11:53:00,
2013-03-21 07:58:00,23.6,21.0,29.76,East,90,2.1,2.1,89,-99.99,,,-99.99,tws,2013-03-21 11:58:00,
2013-03-21 08:03:00,23.9,21.5,29.76,ESE,112,3.2,3.2,90,-99.99,,,-99.99,tws,2013-03-21 12:03:00,
2013-03-21 08:08:00,24.0,21.6,29.76,SE,135,0.0,0.0,90,-99.99,,,-99.99,tws,2013-03-21 12:08:00,
2013-03-21 08:13:00,24.6,21.9,29.76,ESE,112,1.7,1.7,89,-99.99,,,-99.99,tws,2013-03-21 12:13:00,
2013-03-21 08:18:00,26.2,22.5,29.76,ESE,112,0.0,0.0,85,-99.99,,,-99.99,tws,2013-03-21 12:18:00,
2013-03-21 08:23:00,26.7,22.6,29.76,ESE,112,1.2,1.2,84,-99.99,,,-99.99,tws,2013-03-21 12:23:00,
2013-03-21 08:28:00,25.7,22.2,29.76,ENE,67,2.7,2.7,86,-99.99,,,-99.99,tws,2013-03-21 12:28:00,
2013-03-21 08:34:00,26.3,22.7,29.76,NE,45,1.7,1.7,86,-99.99,,,-99.99,tws,2013-03-21 12:34:00,
2013-03-21 08:39:00,27.4,23.2,29.76,ESE,112,0.0,0.0,84,-99.99,,,-99.99,tws,2013-03-21 12:39:00,
2013-03-21 08:44:00,28.0,23.1,29.76,NE,45,0.0,0.0,81,-99.99,,,-99.99,tws,2013-03-21 12:44:00,
2013-03-21 08:50:00,27.5,23.2,29.76,East,90,0.0,0.0,83,-99.99,,,-99.99,tws,2013-03-21 12:50:00,
2013-03-21 08:55:00,29.4,24.0,29.76,South,180,0.0,0.0,80,-99.99,,,-99.99,tws,2013-03-21 12:55:00,
2013-03-21 09:00:00,29.8,23.3,29.76,SSW,202,0.0,0.0,76,-99.99,,,-99.99,tws,2013-03-21 13:00:00,
2013-03-21 09:05:00,30.9,24.0,29.76,SSE,157,0.0,0.0,75,-99.99,,,-99.99,tws,2013-03-21 13:05:00,
2013-03-21 09:10:00,28.5,22.6,29.76,SE,135,0.0,0.0,78,-99.99,,,-99.99,tws,2013-03-21 13:10:00,
2013-03-21 09:15:00,29.0,22.1,29.76,SE,135,2.4,2.4,75,-99.99,,,-99.99,tws,2013-03-21 13:15:00,
2013-03-21 09:20:00,29.7,21.1,29.76,ESE,112,5.4,5.4,70,-99.99,,,-99.99,tws,2013-03-21 13:20:00,
2013-03-21 09:25:00,31.6,21.7,29.76,NE,45,1.6,1.6,66,-99.99,,,-99.99,tws,2013-03-21 13:25:00,
2013-03-21 09:30:00,31.0,21.2,29.75,East,90,1.0,1.0,66,-99.99,,,-99.99,tws,2013-03-21 13:30:00,
2013-03-21 09:35:00,31.1,20.7,29.75,NNE,22,3.8,3.8,64,-99.99,,,-99.99,tws,2013-03-21 13:35:00,
2013-03-21 09:41:00,29.9,19.6,29.75,NNE,22,1.1,1.1,65,-99.99,,,-99.99,tws,2013-03-21 13:41:00,
2013-03-21 09:46:00,31.6,20.4,29.75,NNE,22,0.2,0.2,62,-99.99,,,-99.99,tws,2013-03-21 13:46:00,
2013-03-21 09:51:00,30.2,19.4,29.75,NNE,22,0.4,0.4,63,-99.99,,,-99.99,tws,2013-03-21 13:51:00,
2013-03-21 09:56:00,32.9,20.8,29.75,NNW,337,0.7,0.7,60,-99.99,,,-99.99,tws,2013-03-21 13:56:00,
2013-03-21 10:01:00,31.2,19.4,29.75,NNE,22,0.0,0.0,61,-99.99,,,-99.99,tws,2013-03-21 14:01:00,
2013-03-21 10:06:00,34.4,21.0,29.75,NNE,22,1.7,1.7,57,-99.99,,,-99.99,tws,2013-03-21 14:06:00,
2013-03-21 10:12:00,33.5,20.7,29.75,NNE,22,7.4,7.4,59,-99.99,,,-99.99,tws,2013-03-21 14:12:00,
2013-03-21 10:17:00,37.0,22.3,29.75,NNE,22,2.4,2.4,54,-99.99,,,-99.99,tws,2013-03-21 14:17:00,
2013-03-21 10:22:00,35.0,20.8,29.74,NE,45,3.0,3.0,56,-99.99,,,-99.99,tws,2013-03-21 14:22:00,
2013-03-21 10:28:00,35.4,20.5,29.74,NNW,337,1.7,1.7,54,-99.99,,,-99.99,tws,2013-03-21 14:28:00,
2013-03-21 10:33:00,33.2,19.2,29.73,NE,45,6.6,6.6,56,-99.99,,,-99.99,tws,2013-03-21 14:33:00,
2013-03-21 10:38:00,32.1,18.4,29.73,WNW,292,0.7,0.7,56,-99.99,,,-99.99,tws,2013-03-21 14:38:00,
2013-03-21 10:43:00,35.3,20.7,29.74,NNW,337,0.5,0.5,55,-99.99,,,-99.99,tws,2013-03-21 14:43:00,
2013-03-21 10:48:00,34.2,19.7,29.73,NNW,337,3.6,3.6,55,-99.99,,,-99.99,tws,2013-03-21 14:48:00,
2013-03-21 10:53:00,34.6,20.5,29.73,North,360,6.0,6.0,56,-99.99,,,-99.99,tws,2013-03-21 14:53:00,
2013-03-21 10:58:00,33.4,18.7,29.73,NW,315,1.2,1.2,54,-99.99,,,-99.99,tws,2013-03-21 14:58:00,
2013-03-21 11:03:00,32.0,17.8,29.73,ENE,67,0.4,0.4,55,-99.99,,,-99.99,tws,2013-03-21 15:03:00,
2013-03-21 11:08:00,34.4,19.8,29.72,NNE,22,3.0,3.0,55,-99.99,,,-99.99,tws,2013-03-21 15:08:00,
2013-03-21 11:13:00,34.7,19.3,29.72,NE,45,1.8,1.8,52,-99.99,,,-99.99,tws,2013-03-21 15:13:00,
2013-03-21 11:18:00,35.0,19.7,29.72,NNE,22,2.7,2.7,53,-99.99,,,-99.99,tws,2013-03-21 15:18:00,
2013-03-21 11:23:00,34.2,19.8,29.72,ENE,67,6.5,6.5,55,-99.99,,,-99.99,tws,2013-03-21 15:23:00,
2013-03-21 11:28:00,35.5,20.8,29.72,ENE,67,6.7,6.7,54,-99.99,,,-99.99,tws,2013-03-21 15:28:00,
2013-03-21 11:33:00,36.5,20.8,29.72,NNE,22,0.8,0.8,52,-99.99,,,-99.99,tws,2013-03-21 15:33:00,
2013-03-21 11:39:00,36.1,20.9,29.72,NE,45,2.9,2.9,53,-99.99,,,-99.99,tws,2013-03-21 15:39:00,
2013-03-21 11:44:00,36.0,18.6,29.71,NNE,22,0.4,0.4,48,-99.99,,,-99.99,tws,2013-03-21 15:44:00,
2013-03-21 11:49:00,36.9,19.3,29.71,NE,45,2.4,2.4,48,-99.99,,,-99.99,tws,2013-03-21 15:49:00,
2013-03-21 11:54:00,38.4,19.6,29.71,East,90,1.9,1.9,46,-99.99,,,-99.99,tws,2013-03-21 15:54:00,
2013-03-21 12:00:00,41.8,22.4,29.71,East,90,2.7,2.7,45,-99.99,,,-99.99,tws,2013-03-21 16:00:00,
2013-03-21 12:05:00,39.1,20.2,29.70,NE,45,7.4,7.4,46,-99.99,,,-99.99,tws,2013-03-21 16:05:00,
2013-03-21 12:10:00,39.1,20.4,29.70,NNW,337,6.5,6.5,46,-99.99,,,-99.99,tws,2013-03-21 16:10:00,
2013-03-21 12:15:00,41.5,20.9,29.69,East,90,6.1,6.1,43,-99.99,,,-99.99,tws,2013-03-21 16:15:00,
2013-03-21 12:21:00,43.6,21.9,29.69,ENE,67,3.2,3.2,41,-99.99,,,-99.99,tws,2013-03-21 16:21:00,
2013-03-21 12:26:00,43.4,21.8,29.69,ENE,67,0.0,0.0,42,-99.99,,,-99.99,tws,2013-03-21 16:26:00,
2013-03-21 12:32:00,37.3,18.5,29.69,NNE,22,11.3,11.3,46,-99.99,,,-99.99,tws,2013-03-21 16:32:00,
2013-03-21 12:38:00,41.1,20.9,29.69,East,90,4.2,4.2,44,-99.99,,,-99.99,tws,2013-03-21 16:38:00,
2013-03-21 12:43:00,42.9,22.4,29.68,NE,45,5.2,5.2,43,-99.99,,,-99.99,tws,2013-03-21 16:43:00,
2013-03-21 12:49:00,36.0,18.3,29.68,ENE,67,15.8,15.8,48,-99.99,,,-99.99,tws,2013-03-21 16:49:00,
2013-03-21 12:55:00,37.4,19.5,29.68,NE,45,7.8,7.8,48,-99.99,,,-99.99,tws,2013-03-21 16:55:00,
2013-03-21 13:01:00,41.7,21.3,29.68,NNW,337,1.4,1.4,43,-99.99,,,-99.99,tws,2013-03-21 17:01:00,
2013-03-21 13:06:00,42.0,21.2,29.67,ENE,67,9.0,9.0,43,-99.99,,,-99.99,tws,2013-03-21 17:06:00,
2013-03-21 13:12:00,44.4,21.9,29.67,ENE,67,2.6,2.6,40,-99.99,,,-99.99,tws,2013-03-21 17:12:00,
2013-03-21 13:17:00,41.1,21.3,29.66,ESE,112,11.5,11.5,44,-99.99,,,-99.99,tws,2013-03-21 17:17:00,
2013-03-21 13:23:00,41.6,20.3,29.66,NNE,22,8.9,8.9,42,-99.99,,,-99.99,tws,2013-03-21 17:23:00,
2013-03-21 13:28:00,43.0,20.8,29.66,ESE,112,2.1,2.1,40,-99.99,,,-99.99,tws,2013-03-21 17:28:00,
2013-03-21 13:34:00,42.4,22.1,29.66,East,90,13.0,13.0,44,-99.99,,,-99.99,tws,2013-03-21 17:34:00,
2013-03-21 13:39:00,44.4,23.3,29.66,NNE,22,5.3,5.3,43,-99.99,,,-99.99,tws,2013-03-21 17:39:00,
2013-03-21 13:44:00,45.2,23.4,29.66,ESE,112,10.7,10.7,41,-99.99,,,-99.99,tws,2013-03-21 17:44:00,
2013-03-21 13:49:00,44.8,22.7,29.65,East,90,10.3,10.3,41,-99.99,,,-99.99,tws,2013-03-21 17:49:00,
2013-03-21 13:54:00,44.5,22.9,29.65,NE,45,8.7,8.7,42,-99.99,,,-99.99,tws,2013-03-21 17:54:00,
2013-03-21 13:59:00,40.8,20.9,29.65,ESE,112,9.2,9.2,44,-99.99,,,-99.99,tws,2013-03-21 17:59:00,
2013-03-21 14:04:00,40.6,19.3,29.64,North,0,11.1,11.1,42,-99.99,,,-99.99,tws,2013-03-21 18:04:00,
2013-03-21 14:09:00,40.1,19.1,29.64,ENE,67,13.8,13.8,42,-99.99,,,-99.99,tws,2013-03-21 18:09:00,
2013-03-21 14:15:00,44.2,22.5,29.64,NNE,22,6.9,6.9,42,-99.99,,,-99.99,tws,2013-03-21 18:15:00,
2013-03-21 14:20:00,43.6,22.2,29.64,ENE,67,9.5,9.5,42,-99.99,,,-99.99,tws,2013-03-21 18:20:00,
2013-03-21 14:25:00,40.3,19.5,29.64,ENE,67,13.4,13.4,42,-99.99,,,-99.99,tws,2013-03-21 18:25:00,
2013-03-21 14:30:00,42.2,21.8,29.64,East,90,10.2,10.2,44,-99.99,,,-99.99,tws,2013-03-21 18:30:00,
2013-03-21 14:35:00,43.0,20.8,29.64,East,90,7.9,7.9,40,-99.99,,,-99.99,tws,2013-03-21 18:35:00,
2013-03-21 14:40:00,44.6,23.1,29.63,NNE,22,3.8,3.8,42,-99.99,,,-99.99,tws,2013-03-21 18:40:00,
2013-03-21 14:45:00,45.2,22.0,29.63,NNE,22,2.5,2.5,39,-99.99,,,-99.99,tws,2013-03-21 18:45:00,
2013-03-21 14:52:00,45.3,22.0,29.62,NE,45,11.2,11.2,39,-99.99,,,-99.99,tws,2013-03-21 18:52:00,
2013-03-21 14:57:00,41.5,19.7,29.62,NNE,22,12.9,12.9,41,-99.99,,,-99.99,tws,2013-03-21 18:57:00,
2013-03-21 15:03:00,44.7,22.0,29.62,NE,45,4.2,4.2,40,-99.99,,,-99.99,tws,2013-03-21 19:03:00,
2013-03-21 15:08:00,46.1,22.4,29.62,SE,135,5.7,5.7,38,-99.99,,,-99.99,tws,2013-03-21 19:08:00,
2013-03-21 15:13:00,43.7,22.3,29.62,NE,45,11.1,11.1,42,-99.99,,,-99.99,tws,2013-03-21 19:13:00,
2013-03-21 15:18:00,42.2,19.3,29.62,NE,45,9.4,9.4,39,-99.99,,,-99.99,tws,2013-03-21 19:18:00,
2013-03-21 15:23:00,42.7,20.1,29.61,ENE,67,12.5,12.5,40,-99.99,,,-99.99,tws,2013-03-21 19:23:00,
2013-03-21 15:28:00,47.0,21.4,29.61,East,90,2.1,2.1,35,-99.99,,,-99.99,tws,2013-03-21 19:28:00,
2013-03-21 15:33:00,44.5,22.4,29.61,East,90,12.5,12.5,41,-99.99,,,-99.99,tws,2013-03-21 19:33:00,
2013-03-21 15:38:00,45.7,21.9,29.61,East,90,4.6,4.6,38,-99.99,,,-99.99,tws,2013-03-21 19:38:00,
2013-03-21 15:43:00,40.9,19.3,29.61,East,90,17.9,17.9,41,-99.99,,,-99.99,tws,2013-03-21 19:43:00,
2013-03-21 15:48:00,43.4,20.8,29.61,NNE,22,8.7,8.7,40,-99.99,,,-99.99,tws,2013-03-21 19:48:00,
2013-03-21 15:53:00,47.5,23.1,29.61,SE,135,8.4,8.4,37,-99.99,,,-99.99,tws,2013-03-21 19:53:00,
2013-03-21 15:58:00,43.2,21.0,29.61,ESE,112,12.3,12.3,40,-99.99,,,-99.99,tws,2013-03-21 19:58:00,
2013-03-21 16:03:00,45.6,22.3,29.61,East,90,9.7,9.7,39,-99.99,,,-99.99,tws,2013-03-21 20:03:00,
2013-03-21 16:09:00,41.9,20.3,29.61,East,90,14.0,14.0,41,-99.99,,,-99.99,tws,2013-03-21 20:09:00,
2013-03-21 16:14:00,43.7,22.0,29.60,ENE,67,16.4,16.4,41,-99.99,,,-99.99,tws,2013-03-21 20:14:00,
2013-03-21 16:19:00,44.5,22.4,29.61,NNE,22,9.2,9.2,41,-99.99,,,-99.99,tws,2013-03-21 20:19:00,
2013-03-21 16:24:00,43.7,22.4,29.61,ESE,112,11.8,11.8,42,-99.99,,,-99.99,tws,2013-03-21 20:24:00,
2013-03-21 16:29:00,41.8,20.1,29.60,NE,45,13.0,13.0,41,-99.99,,,-99.99,tws,2013-03-21 20:29:00,
2013-03-21 16:34:00,41.6,20.5,29.60,ENE,67,17.7,17.7,42,-99.99,,,-99.99,tws,2013-03-21 20:34:00,
2013-03-21 16:39:00,42.5,20.2,29.59,East,90,12.5,12.5,40,-99.99,,,-99.99,tws,2013-03-21 20:39:00,
2013-03-21 16:44:00,47.0,23.2,29.60,NNE,22,7.8,7.8,38,-99.99,,,-99.99,tws,2013-03-21 20:44:00,
2013-03-21 16:49:00,42.9,19.9,29.60,NE,45,11.0,11.0,39,-99.99,,,-99.99,tws,2013-03-21 20:49:00,
2013-03-21 16:54:00,43.8,22.7,29.60,ENE,67,10.8,10.8,42,-99.99,,,-99.99,tws,2013-03-21 20:54:00,
2013-03-21 16:59:00,40.5,19.2,29.59,ENE,67,17.4,17.4,42,-99.99,,,-99.99,tws,2013-03-21 20:59:00,
2013-03-21 17:05:00,40.1,19.5,29.59,ESE,112,9.8,9.8,43,-99.99,,,-99.99,tws,2013-03-21 21:05:00,
2013-03-21 17:10:00,38.5,18.5,29.60,NNE,22,18.8,18.8,43,-99.99,,,-99.99,tws,2013-03-21 21:10:00,
2013-03-21 17:15:00,37.2,18.2,29.60,NNE,22,16.6,16.6,45,-99.99,,,-99.99,tws,2013-03-21 21:15:00,
2013-03-21 17:21:00,37.8,18.9,29.61,NNE,22,11.6,11.6,46,-99.99,,,-99.99,tws,2013-03-21 21:21:00,
2013-03-21 17:27:00,35.5,16.5,29.61,NNE,22,21.9,21.9,45,-99.99,,,-99.99,tws,2013-03-21 21:27:00,
2013-03-21 17:32:00,35.8,18.1,29.61,NNE,22,11.7,11.7,48,-99.99,,,-99.99,tws,2013-03-21 21:32:00,
2013-03-21 17:37:00,37.4,18.8,29.61,North,0,10.1,10.1,46,-99.99,,,-99.99,tws,2013-03-21 21:37:00,
2013-03-21 17:42:00,35.7,16.6,29.61,ENE,67,17.6,17.6,45,-99.99,,,-99.99,tws,2013-03-21 21:42:00,
2013-03-21 17:48:00,35.1,15.9,29.61,North,360,17.2,17.2,45,-99.99,,,-99.99,tws,2013-03-21 21:48:00,
2013-03-21 17:53:00,34.2,15.8,29.61,North,0,17.5,17.5,46,-99.99,,,-99.99,tws,2013-03-21 21:53:00,
2013-03-21 17:58:00,34.2,16.3,29.61,NNE,22,19.6,19.6,47,-99.99,,,-99.99,tws,2013-03-21 21:58:00,
2013-03-21 18:04:00,34.2,16.9,29.61,NNE,22,12.9,12.9,49,-99.99,,,-99.99,tws,2013-03-21 22:04:00,
2013-03-21 18:09:00,33.7,16.1,29.61,ENE,67,23.2,23.2,48,-99.99,,,-99.99,tws,2013-03-21 22:09:00,
2013-03-21 18:14:00,33.7,16.1,29.62,North,360,16.6,16.6,48,-99.99,,,-99.99,tws,2013-03-21 22:14:00,
2013-03-21 18:20:00,33.5,15.6,29.62,NNE,22,14.5,14.5,47,-99.99,,,-99.99,tws,2013-03-21 22:20:00,
2013-03-21 18:25:00,33.6,16.1,29.62,North,360,15.0,15.0,48,-99.99,,,-99.99,tws,2013-03-21 22:25:00,
2013-03-21 18:30:00,32.8,16.1,29.62,North,360,18.8,18.8,49,-99.99,,,-99.99,tws,2013-03-21 22:30:00,
2013-03-21 18:35:00,33.8,16.7,29.63,NW,315,8.0,8.0,49,-99.99,,,-99.99,tws,2013-03-21 22:35:00,
2013-03-21 18:41:00,33.0,16.3,29.64,North,360,15.6,15.6,49,-99.99,,,-99.99,tws,2013-03-21 22:41:00,
2013-03-21 18:46:00,33.0,16.0,29.63,NE,45,13.6,13.6,49,-99.99,,,-99.99,tws,2013-03-21 22:46:00,
2013-03-21 18:51:00,32.8,15.2,29.64,North,360,14.3,14.3,47,-99.99,,,-99.99,tws,2013-03-21 22:51:00,
2013-03-21 18:56:00,32.5,15.3,29.64,NNW,337,16.3,16.3,48,-99.99,,,-99.99,tws,2013-03-21 22:56:00,
2013-03-21 19:01:00,32.1,15.6,29.64,North,360,18.1,18.1,50,-99.99,,,-99.99,tws,2013-03-21 23:01:00,
2013-03-21 19:06:00,31.8,15.1,29.64,North,360,17.3,17.3,49,-99.99,,,-99.99,tws,2013-03-21 23:06:00,
2013-03-21 19:11:00,31.8,14.9,29.64,NNW,337,19.9,19.9,49,-99.99,,,-99.99,tws,2013-03-21 23:11:00,
2013-03-21 19:17:00,31.8,15.4,29.64,North,0,9.7,9.7,50,-99.99,,,-99.99,tws,2013-03-21 23:17:00,
2013-03-21 19:22:00,31.6,16.1,29.64,North,0,7.2,7.2,52,-99.99,,,-99.99,tws,2013-03-21 23:22:00,
2013-03-21 19:27:00,31.6,14.9,29.64,North,0,10.3,10.3,49,-99.99,,,-99.99,tws,2013-03-21 23:27:00,
2013-03-21 19:32:00,31.3,14.6,29.65,NNW,337,14.1,14.1,49,-99.99,,,-99.99,tws,2013-03-21 23:32:00,
2013-03-21 19:37:00,31.0,14.6,29.65,North,360,14.6,14.6,50,-99.99,,,-99.99,tws,2013-03-21 23:37:00,
2013-03-21 19:42:00,30.8,14.3,29.65,NNW,337,13.1,13.1,50,-99.99,,,-99.99,tws,2013-03-21 23:42:00,
2013-03-21 19:47:00,30.9,15.2,29.65,North,360,10.5,10.5,51,-99.99,,,-99.99,tws,2013-03-21 23:47:00,
2013-03-21 19:53:00,30.5,14.4,29.66,NNE,22,12.7,12.7,51,-99.99,,,-99.99,tws,2013-03-21 23:53:00,
2013-03-21 19:58:00,30.5,15.0,29.66,North,360,14.5,14.5,52,-99.99,,,-99.99,tws,2013-03-21 23:58:00,
2013-03-21 20:03:00,30.5,15.0,29.66,North,360,12.1,12.1,52,-99.99,,,-99.99,tws,2013-03-22 00:03:00,
2013-03-21 20:08:00,30.0,15.2,29.66,North,0,13.4,13.4,53,-99.99,,,-99.99,tws,2013-03-22 00:08:00,
2013-03-21 20:13:00,30.2,15.5,29.66,North,360,9.2,9.2,54,-99.99,,,-99.99,tws,2013-03-22 00:13:00,
2013-03-21 20:18:00,29.8,15.8,29.66,North,360,5.8,5.8,55,-99.99,,,-99.99,tws,2013-03-22 00:18:00,
2013-03-21 20:23:00,29.7,15.6,29.66,NNW,337,11.9,11.9,55,-99.99,,,-99.99,tws,2013-03-22 00:23:00,
2013-03-21 20:28:00,29.8,15.5,29.66,NW,315,13.8,13.8,55,-99.99,,,-99.99,tws,2013-03-22 00:28:00,
2013-03-21 20:33:00,29.8,15.5,29.66,North,360,12.0,12.0,55,-99.99,,,-99.99,tws,2013-03-22 00:33:00,
2013-03-21 20:38:00,29.7,16.0,29.66,WNW,292,9.1,9.1,56,-99.99,,,-99.99,tws,2013-03-22 00:38:00,
2013-03-21 20:43:00,29.5,15.5,29.66,North,360,9.0,9.0,55,-99.99,,,-99.99,tws,2013-03-22 00:43:00,
2013-03-21 20:48:00,29.4,15.0,29.67,North,360,8.7,8.7,54,-99.99,,,-99.99,tws,2013-03-22 00:48:00,
2013-03-21 20:53:00,29.3,15.1,29.66,WNW,292,10.0,10.0,55,-99.99,,,-99.99,tws,2013-03-22 00:53:00,
2013-03-21 20:58:00,29.2,15.0,29.67,North,360,9.4,9.4,55,-99.99,,,-99.99,tws,2013-03-22 00:58:00,
2013-03-21 21:03:00,29.0,15.3,29.67,NNW,337,6.9,6.9,56,-99.99,,,-99.99,tws,2013-03-22 01:03:00,
2013-03-21 21:08:00,29.0,15.4,29.66,NNW,337,5.2,5.2,56,-99.99,,,-99.99,tws,2013-03-22 01:08:00,
2013-03-21 21:13:00,28.9,14.8,29.67,North,0,13.4,13.4,55,-99.99,,,-99.99,tws,2013-03-22 01:13:00,
2013-03-21 21:18:00,28.6,15.4,29.67,North,360,9.4,9.4,57,-99.99,,,-99.99,tws,2013-03-22 01:18:00,
2013-03-21 21:23:00,29.0,15.4,29.67,NNW,337,8.6,8.6,56,-99.99,,,-99.99,tws,2013-03-22 01:23:00,
2013-03-21 21:28:00,28.8,15.2,29.67,North,360,9.5,9.5,56,-99.99,,,-99.99,tws,2013-03-22 01:28:00,
2013-03-21 21:33:00,28.5,15.0,29.67,NNW,337,10.3,10.3,56,-99.99,,,-99.99,tws,2013-03-22 01:33:00,
2013-03-21 21:38:00,28.8,15.6,29.67,NW,315,6.8,6.8,57,-99.99,,,-99.99,tws,2013-03-22 01:38:00,
2013-03-21 21:43:00,28.1,15.4,29.67,WNW,292,8.4,8.4,58,-99.99,,,-99.99,tws,2013-03-22 01:43:00,
2013-03-21 21:48:00,28.6,15.5,29.68,North,360,1.2,1.2,57,-99.99,,,-99.99,tws,2013-03-22 01:48:00,
2013-03-21 21:53:00,28.3,15.0,29.68,NNW,337,2.9,2.9,57,-99.99,,,-99.99,tws,2013-03-22 01:53:00,
2013-03-21 21:59:00,28.4,15.2,29.68,WNW,292,0.0,0.0,57,-99.99,,,-99.99,tws,2013-03-22 01:59:00,
2013-03-21 22:04:00,28.3,14.7,29.68,WNW,292,1.8,1.8,56,-99.99,,,-99.99,tws,2013-03-22 02:04:00,
2013-03-21 22:09:00,28.1,14.4,29.68,NNW,337,1.2,1.2,56,-99.99,,,-99.99,tws,2013-03-22 02:09:00,
2013-03-21 22:14:00,28.6,15.4,29.68,WNW,292,0.0,0.0,57,-99.99,,,-99.99,tws,2013-03-22 02:14:00,
2013-03-21 22:19:00,28.4,15.1,29.68,WNW,292,0.0,0.0,57,-99.99,,,-99.99,tws,2013-03-22 02:19:00,
2013-03-21 22:24:00,28.4,15.2,29.68,West,270,0.1,0.1,57,-99.99,,,-99.99,tws,2013-03-22 02:24:00,
2013-03-21 22:29:00,28.2,15.0,29.68,NW,315,0.0,0.0,57,-99.99,,,-99.99,tws,2013-03-22 02:29:00,
2013-03-21 22:34:00,28.2,15.4,29.68,NW,315,0.0,0.0,58,-99.99,,,-99.99,tws,2013-03-22 02:34:00,
2013-03-21 22:39:00,28.4,15.4,29.68,NNE,22,0.1,0.1,57,-99.99,,,-99.99,tws,2013-03-22 02:39:00,
2013-03-21 22:44:00,27.3,15.1,29.68,NNE,22,0.0,0.0,59,-99.99,,,-99.99,tws,2013-03-22 02:44:00,
2013-03-21 22:49:00,27.5,14.6,29.68,North,360,14.2,14.2,57,-99.99,,,-99.99,tws,2013-03-22 02:49:00,
2013-03-21 22:54:00,27.5,14.7,29.68,NW,315,12.5,12.5,58,-99.99,,,-99.99,tws,2013-03-22 02:54:00,
2013-03-21 22:59:00,27.3,15.4,29.68,NNE,22,4.8,4.8,60,-99.99,,,-99.99,tws,2013-03-22 02:59:00,
2013-03-21 23:04:00,26.7,14.9,29.68,NNW,337,3.3,3.3,60,-99.99,,,-99.99,tws,2013-03-22 03:04:00,
2013-03-21 23:09:00,27.1,14.6,29.68,NNW,337,8.0,8.0,59,-99.99,,,-99.99,tws,2013-03-22 03:09:00,
2013-03-21 23:14:00,27.3,14.9,29.68,North,0,1.4,1.4,59,-99.99,,,-99.99,tws,2013-03-22 03:14:00,
2013-03-21 23:19:00,26.8,14.4,29.68,NNE,22,2.0,2.0,59,-99.99,,,-99.99,tws,2013-03-22 03:19:00,
2013-03-21 23:24:00,26.5,14.8,29.68,NNW,337,4.0,4.0,60,-99.99,,,-99.99,tws,2013-03-22 03:24:00,
2013-03-21 23:29:00,27.1,14.7,29.68,North,360,6.2,6.2,59,-99.99,,,-99.99,tws,2013-03-22 03:29:00,
2013-03-21 23:34:00,27.0,14.9,29.68,North,0,0.2,0.2,60,-99.99,,,-99.99,tws,2013-03-22 03:34:00,
2013-03-21 23:39:00,26.5,15.2,29.68,NNE,22,3.0,3.0,61,-99.99,,,-99.99,tws,2013-03-22 03:39:00,
2013-03-21 23:44:00,26.4,15.0,29.68,NNE,22,0.2,0.2,61,-99.99,,,-99.99,tws,2013-03-22 03:44:00,
2013-03-21 23:49:00,26.3,14.9,29.68,NNE,22,2.9,2.9,61,-99.99,,,-99.99,tws,2013-03-22 03:49:00,
2013-03-21 23:54:00,26.1,14.9,29.68,NE,45,0.4,0.4,62,-99.99,,,-99.99,tws,2013-03-22 03:54:00,
2013-03-21 23:59:00,26.0,15.2,29.68,East,90,0.0,0.0,63,-99.99,,,-99.99,tws,2013-03-22 03:59:00,